Middletown, MD (21769)

11:41 PM EDT on July 24, 2016 (GMT -0400)
Pacific Ct | | Change Station
Active Advisory: Heat Advisory

Elev 745 ft 39.47 °N, 77.51 °W | Updated 2 seconds ago

Scattered Clouds
Scattered Clouds
74.1 °F
Feels Like 71 °F
N
0.0
Wind Variable Wind from NE
Gusts 0.0 mph

Today
High -- | Low -- °F
--% Chance of Precip.
Yesterday
High -- | Low -- °F
Precip. -- in
Pressure 30.01 in
Visibility 10.0 miles
Clouds Scattered Clouds 6000 ft
Heat Index 71 °F
Dew Point 73 °F
Humidity 96%
Rainfall 0.02 in
Snow Depth Not available.
6:03 AM 8:29 PM
Waning Gibbous, 70% visible
METAR KFDK 250315Z AUTO 00000KT 10SM SCT060 25/22 A3001 RMK AO2
Pressure 30.01 in
Visibility 10.0 miles
Clouds Scattered Clouds 6000 ft
Heat Index 71 °F
Dew Point 73 °F
Humidity 96%
Rainfall 0.02 in
Snow Depth Not available.
6:03 AM 8:29 PM
Waning Gibbous, 70% visible
METAR KFDK 250315Z AUTO 00000KT 10SM SCT060 25/22 A3001 RMK AO2

10-Day Weather Forecast

Almanac

Astronomy

Jul. 24, 2016 Rise Set
Actual Time
Civil Twilight
Nautical Twilight
Astronomical Twilight
Moon
Length of Visible Light
Length of Day
Tomorrow will be .
, % of the Moon is Illuminated

Today's Extremes

State Highs State Lows

Community

WunderPhotos

Upload Photos

1,927,256 photos uploaded!

WunderBlog® & News

Nearby

Air Quality

  Air Quality AQ Index Pollutant
Not available.

Snow Depth

Station Depth Elevation

Earthquake Activity

City Distance Mag. Time & Date
Minimum magnitude displayed is 2.5.

Coastal Water Temperatures

Place Temperature

Stations

Nearby Weather Stations

Station Location Temp. Windchill Dew Point Humidity Wind Precip. Elev Updated Type
                   

Watches & Warnings

Heat Advisory
Issued: 7:25 PM EDT Jul. 24, 2016 – National Weather Service

... Heat advisory remains in effect from noon to 8 PM EDT Monday...

* heat index values... up to 109 due to temperatures in the mid
90s to around 100... and dewpoints in the lower 70s.

* Impacts... risk of heat-related illness for those without air-
conditioning or those outdoors for an extended period.

Precautionary/preparedness actions...

A heat advisory means that a period of high temperatures is
expected. The combination of high temperatures and high humidity
will create a situation in which heat illnesses are possible.

Take extra precautions if you work or spend time outside. When
possible... reschedule strenuous activities to early morning or
evening. Know the signs and symptoms of heat exhaustion and heat
stroke. Wear light weight and loose fitting clothing when
possible and drink plenty of water.

To reduce risk during outdoor work... the occupational safety and
health administration recommends scheduling frequent rest breaks
in shaded or air conditioned environments. Anyone overcome by
heat should be moved to a cool and shaded location. Heat stroke
is an emergency - call 911.